createdAt,value
2022-08-25T00:00:20.308Z,21.03
2022-08-25T00:02:56.191Z,21.02
2022-08-25T00:05:33.355Z,20.98
2022-08-25T00:08:01.927Z,20.95
2022-08-25T00:10:31.261Z,20.92
2022-08-25T00:12:59.136Z,20.89
2022-08-25T00:15:27.286Z,20.86
2022-08-25T00:17:55.486Z,20.84
2022-08-25T00:20:23.460Z,20.82
2022-08-25T00:22:51.239Z,20.79
2022-08-25T00:25:20.171Z,20.78
2022-08-25T00:27:49.425Z,20.77
2022-08-25T00:30:17.561Z,20.72
2022-08-25T00:32:55.174Z,20.69
2022-08-25T00:35:26.771Z,20.68
2022-08-25T00:37:54.629Z,20.62
2022-08-25T00:40:23.531Z,20.64
2022-08-25T00:42:52.826Z,20.62
2022-08-25T00:45:20.913Z,20.59
2022-08-25T00:47:48.830Z,20.59
2022-08-25T00:50:19.295Z,20.53
2022-08-25T00:52:50.955Z,20.57
2022-08-25T00:55:22.671Z,20.50
2022-08-25T00:57:57.034Z,20.51
2022-08-25T01:00:28.544Z,20.50
2022-08-25T01:02:57.868Z,20.45
2022-08-25T01:05:28.098Z,20.44
2022-08-25T01:07:58.573Z,20.40
2022-08-25T01:10:28.710Z,20.35
2022-08-25T01:13:03.911Z,20.32
2022-08-25T01:15:32.251Z,20.30
2022-08-25T01:18:01.155Z,20.23
2022-08-25T01:20:31.578Z,20.26
2022-08-25T01:23:01.019Z,20.17
2022-08-25T01:25:40.616Z,20.15
2022-08-25T01:28:08.592Z,20.13
2022-08-25T01:30:37.089Z,20.11
2022-08-25T01:33:06.976Z,19.99
2022-08-25T01:35:35.240Z,19.98
2022-08-25T01:38:06.707Z,19.99
2022-08-25T01:40:36.746Z,20.00
2022-08-25T01:43:13.587Z,19.87
2022-08-25T01:45:44.189Z,19.82
2022-08-25T01:48:13.402Z,19.86
2022-08-25T01:50:42.495Z,19.83
2022-08-25T01:53:15.487Z,19.73
2022-08-25T01:55:52.968Z,19.76
2022-08-25T01:58:23.538Z,19.69
2022-08-25T02:00:54.305Z,19.71
2022-08-25T02:03:22.926Z,19.71
2022-08-25T02:05:50.929Z,19.68
2022-08-25T02:08:20.630Z,19.67
2022-08-25T02:10:48.458Z,19.67
2022-08-25T02:13:17.306Z,19.65
2022-08-25T02:15:48.296Z,19.59
2022-08-25T02:18:16.924Z,19.62
2022-08-25T02:20:45.601Z,19.57
2022-08-25T02:23:13.797Z,19.51
2022-08-25T02:25:43.295Z,19.55
2022-08-25T02:28:11.782Z,19.53
2022-08-25T02:30:41.441Z,19.41
2022-08-25T02:33:09.808Z,19.41
2022-08-25T02:35:38.357Z,19.43
2022-08-25T02:38:07.247Z,19.39
2022-08-25T02:40:35.090Z,19.29
2022-08-25T02:43:05.735Z,19.38
2022-08-25T02:45:33.638Z,19.40
2022-08-25T02:48:01.782Z,19.40
2022-08-25T02:50:29.846Z,19.37
2022-08-25T02:52:57.662Z,19.32
2022-08-25T02:55:25.561Z,19.30
2022-08-25T02:57:53.393Z,19.28
2022-08-25T03:00:23.238Z,19.25
2022-08-25T03:02:51.086Z,19.17
2022-08-25T03:05:19.062Z,19.21
2022-08-25T03:07:46.930Z,19.24
2022-08-25T03:10:18.355Z,19.19
2022-08-25T03:12:47.668Z,19.21
2022-08-25T03:15:17.703Z,19.20
2022-08-25T03:17:49.461Z,19.18
2022-08-25T03:20:18.987Z,19.17
2022-08-25T03:22:46.842Z,19.13
2022-08-25T03:25:31.994Z,19.12
2022-08-25T03:27:59.937Z,19.10
2022-08-25T03:30:29.403Z,19.05
2022-08-25T03:32:58.675Z,19.03
2022-08-25T03:35:26.649Z,19.03
2022-08-25T03:37:57.491Z,19.01
2022-08-25T03:40:26.268Z,18.99
2022-08-25T03:42:55.398Z,18.95
2022-08-25T03:45:24.835Z,18.94
2022-08-25T03:47:54.238Z,18.90
2022-08-25T03:50:24.473Z,18.90
2022-08-25T03:52:53.926Z,18.85
2022-08-25T03:55:22.933Z,18.85
2022-08-25T03:57:51.065Z,18.83
2022-08-25T04:00:19.773Z,18.81
2022-08-25T04:02:47.669Z,18.81
2022-08-25T04:05:15.842Z,18.75
2022-08-25T04:07:45.161Z,18.73
2022-08-25T04:10:13.457Z,18.73
2022-08-25T04:12:41.774Z,18.72
2022-08-25T04:15:11.182Z,18.68
2022-08-25T04:17:40.740Z,18.70
2022-08-25T04:20:09.944Z,18.68
2022-08-25T04:22:39.295Z,18.68
2022-08-25T04:25:14.454Z,18.67
2022-08-25T04:27:42.361Z,18.65
2022-08-25T04:30:11.714Z,18.65
2022-08-25T04:32:39.603Z,18.63
2022-08-25T04:35:09.086Z,18.62
2022-08-25T04:37:37.272Z,18.63
2022-08-25T04:40:06.080Z,18.55
2022-08-25T04:42:35.358Z,18.60
2022-08-25T04:45:04.296Z,18.61
2022-08-25T04:47:32.280Z,18.62
2022-08-25T04:50:00.126Z,18.64
2022-08-25T04:52:28.025Z,18.64
2022-08-25T04:54:56.397Z,18.67
2022-08-25T04:57:24.359Z,18.66
2022-08-25T04:59:54.189Z,18.69
2022-08-25T05:02:22.160Z,18.67
2022-08-25T05:04:50.023Z,18.64
2022-08-25T05:07:17.921Z,18.74
2022-08-25T05:09:45.735Z,18.76
2022-08-25T05:12:13.762Z,18.83
2022-08-25T05:14:41.540Z,18.84
2022-08-25T05:17:10.744Z,18.85
2022-08-25T05:19:38.635Z,18.90
2022-08-25T05:22:06.744Z,18.96
2022-08-25T05:24:34.659Z,18.97
2022-08-25T05:27:03.875Z,18.99
2022-08-25T05:29:31.709Z,19.02
2022-08-25T05:31:59.580Z,19.07
2022-08-25T05:34:30.099Z,19.12
2022-08-25T05:37:00.140Z,19.16
2022-08-25T05:39:32.286Z,19.20
2022-08-25T05:42:00.240Z,19.24
2022-08-25T05:44:28.178Z,19.26
2022-08-25T05:46:55.972Z,19.34
2022-08-25T05:49:23.754Z,19.32
2022-08-25T05:51:55.129Z,19.35
2022-08-25T05:54:23.065Z,19.45
2022-08-25T05:56:51.067Z,19.54
2022-08-25T05:59:19.018Z,19.51
2022-08-25T06:02:04.449Z,19.51
2022-08-25T06:04:32.472Z,19.65
2022-08-25T06:07:01.716Z,19.72
2022-08-25T06:09:29.587Z,19.77
2022-08-25T06:11:57.397Z,19.84
2022-08-25T06:14:26.134Z,19.86
2022-08-25T06:16:54.369Z,19.90
2022-08-25T06:19:23.251Z,19.99
2022-08-25T06:21:54.725Z,20.01
2022-08-25T06:24:24.912Z,20.04
2022-08-25T06:26:52.790Z,20.11
2022-08-25T06:29:20.867Z,20.16
2022-08-25T06:31:49.939Z,20.18
2022-08-25T06:34:24.053Z,20.26
2022-08-25T06:36:52.678Z,20.32
2022-08-25T06:39:21.645Z,20.41
2022-08-25T06:41:53.845Z,20.46
2022-08-25T06:44:21.946Z,20.49
2022-08-25T06:46:50.087Z,20.56
2022-08-25T06:49:18.102Z,20.62
2022-08-25T06:51:46.020Z,20.68
2022-08-25T06:54:14.297Z,20.72
2022-08-25T06:56:43.555Z,20.81
2022-08-25T06:59:12.781Z,20.91
2022-08-25T07:01:40.705Z,21.00
2022-08-25T07:04:13.292Z,21.03
2022-08-25T07:06:41.698Z,21.06
2022-08-25T07:09:11.240Z,21.13
2022-08-25T07:11:39.698Z,21.16
2022-08-25T07:14:10.894Z,21.28
2022-08-25T07:16:42.414Z,21.35
2022-08-25T07:19:14.768Z,21.40
2022-08-25T07:21:45.699Z,21.47
2022-08-25T07:24:15.276Z,21.52
2022-08-25T07:26:46.532Z,21.64
2022-08-25T07:29:16.979Z,21.72
2022-08-25T07:31:46.919Z,21.78
2022-08-25T07:34:32.426Z,21.81
2022-08-25T07:37:00.280Z,21.90
2022-08-25T07:39:29.157Z,22.01
2022-08-25T07:41:57.453Z,22.11
2022-08-25T07:47:16.006Z,22.25
2022-08-25T07:49:44.121Z,22.32
2022-08-25T07:52:11.909Z,22.37
2022-08-25T07:54:39.685Z,22.43
2022-08-25T07:57:09.930Z,22.47
2022-08-25T07:59:41.420Z,22.60
2022-08-25T08:02:17.966Z,22.67
2022-08-25T08:04:50.214Z,22.77
2022-08-25T08:07:19.723Z,22.87
2022-08-25T08:09:53.059Z,22.93
2022-08-25T08:12:29.055Z,22.99
2022-08-25T08:14:56.888Z,23.07
2022-08-25T08:17:24.827Z,23.17
2022-08-25T08:19:54.128Z,23.26
2022-08-25T08:22:22.469Z,23.33
2022-08-25T08:24:54.610Z,23.42
2022-08-25T08:27:24.798Z,23.51
2022-08-25T08:29:53.691Z,23.61
2022-08-25T08:32:25.220Z,23.70
2022-08-25T08:35:07.116Z,23.81
2022-08-25T08:37:38.081Z,23.94
2022-08-25T08:40:10.455Z,24.03
2022-08-25T08:43:04.159Z,24.20
2022-08-25T08:45:40.560Z,24.30
2022-08-25T08:48:35.521Z,24.38
2022-08-25T08:51:15.658Z,24.49
2022-08-25T08:53:50.494Z,24.61
2022-08-25T08:56:23.966Z,24.66
2022-08-25T08:59:05.678Z,24.68
2022-08-25T09:01:36.691Z,24.75
2022-08-25T09:04:11.078Z,24.84
2022-08-25T09:06:45.143Z,24.91
2022-08-25T09:09:20.768Z,25.13
2022-08-25T09:12:00.941Z,25.32
2022-08-25T09:14:54.953Z,25.39
2022-08-25T09:17:44.945Z,25.41
2022-08-25T09:20:45.666Z,25.48
2022-08-25T09:23:26.389Z,25.53
2022-08-25T09:26:01.835Z,25.71
2022-08-25T09:28:32.961Z,25.90
2022-08-25T09:31:03.716Z,26.15
2022-08-25T09:33:35.761Z,26.43
2022-08-25T09:36:06.314Z,26.46
2022-08-25T09:38:40.796Z,26.52
2022-08-25T09:41:11.251Z,26.55
2022-08-25T09:43:43.244Z,26.40
2022-08-25T09:46:13.612Z,26.59
2022-08-25T09:48:52.540Z,26.76
2022-08-25T09:51:28.350Z,27.03
2022-08-25T09:54:01.496Z,26.85
2022-08-25T09:56:50.928Z,27.01
2022-08-25T09:59:30.778Z,26.83
2022-08-25T10:02:05.806Z,26.97
2022-08-25T10:04:36.920Z,27.25
2022-08-25T10:07:21.716Z,27.28
2022-08-25T10:09:55.657Z,27.39
2022-08-25T10:12:31.010Z,27.55
2022-08-25T10:14:59.136Z,27.42
2022-08-25T10:17:30.035Z,27.44
2022-08-25T10:20:17.229Z,27.49
2022-08-25T10:22:48.256Z,27.50
2022-08-25T10:25:26.634Z,27.63
2022-08-25T10:28:06.048Z,27.86
2022-08-25T10:30:52.279Z,27.70
2022-08-25T10:33:27.505Z,27.68
2022-08-25T10:36:02.217Z,27.75
2022-08-25T10:38:43.109Z,27.32
2022-08-25T10:41:37.437Z,27.47
2022-08-25T10:44:30.000Z,27.73
2022-08-25T10:47:26.061Z,27.91
2022-08-25T10:49:57.437Z,27.83
2022-08-25T10:52:39.055Z,27.89
2022-08-25T10:55:18.724Z,28.20
2022-08-25T10:57:56.195Z,28.01
2022-08-25T11:00:31.616Z,27.96
2022-08-25T11:03:27.713Z,28.09
2022-08-25T11:06:08.391Z,28.08
2022-08-25T11:08:41.591Z,27.92
2022-08-25T11:11:21.406Z,27.66
2022-08-25T11:13:56.388Z,27.86
2022-08-25T11:16:35.747Z,28.24
2022-08-25T11:19:15.225Z,28.48
2022-08-25T11:21:51.290Z,28.70
2022-08-25T11:24:39.927Z,28.77
2022-08-25T11:27:13.925Z,28.68
2022-08-25T11:29:51.079Z,28.19
2022-08-25T11:32:22.809Z,28.22
2022-08-25T11:34:51.240Z,28.31
2022-08-25T11:37:25.583Z,28.36
2022-08-25T11:40:19.748Z,28.23
2022-08-25T11:43:02.426Z,28.13
2022-08-25T11:45:54.137Z,28.16
2022-08-25T11:48:37.641Z,28.30
2022-08-25T11:51:07.834Z,28.25
2022-08-25T11:53:42.182Z,28.11
2022-08-25T11:56:12.555Z,28.03
2022-08-25T11:58:49.681Z,27.95
2022-08-25T12:02:02.576Z,28.19
2022-08-25T12:04:45.062Z,28.57
2022-08-25T12:07:26.048Z,28.72
2022-08-25T12:10:17.020Z,28.98
2022-08-25T12:13:00.637Z,29.10
2022-08-25T12:15:33.753Z,29.05
2022-08-25T12:18:15.354Z,29.05
2022-08-25T12:21:12.929Z,29.08
2022-08-25T12:23:45.282Z,28.84
2022-08-25T12:26:21.582Z,29.03
2022-08-25T12:29:01.149Z,29.17
2022-08-25T12:32:09.292Z,29.30
2022-08-25T12:35:12.277Z,29.23
2022-08-25T12:37:57.244Z,29.51
2022-08-25T12:40:31.632Z,29.54
2022-08-25T12:43:24.899Z,29.90
2022-08-25T12:45:54.830Z,30.14
2022-08-25T12:48:57.678Z,29.97
2022-08-25T12:51:29.799Z,29.90
2022-08-25T12:54:12.064Z,29.94
2022-08-25T12:56:48.111Z,29.59
2022-08-25T12:59:18.972Z,29.45
2022-08-25T13:02:16.615Z,29.54
2022-08-25T13:05:13.513Z,29.60
2022-08-25T13:07:59.793Z,29.52
2022-08-25T13:10:43.149Z,29.26
2022-08-25T13:13:23.961Z,29.20
2022-08-25T13:16:00.561Z,29.30
2022-08-25T13:18:30.747Z,29.21
2022-08-25T13:21:07.776Z,29.40
2022-08-25T13:23:39.302Z,29.19
2022-08-25T13:26:07.450Z,29.11
2022-08-25T13:28:40.764Z,29.28
2022-08-25T13:31:16.210Z,29.06
2022-08-25T13:33:54.669Z,29.19
2022-08-25T13:36:47.015Z,29.52
2022-08-25T13:39:45.553Z,29.67
2022-08-25T13:42:16.376Z,29.86
2022-08-25T13:44:51.899Z,30.09
2022-08-25T13:47:34.200Z,30.14
2022-08-25T13:50:17.503Z,30.69
2022-08-25T13:52:52.306Z,30.86
2022-08-25T13:55:28.568Z,30.67
2022-08-25T13:57:59.608Z,30.52
2022-08-25T14:00:34.655Z,30.45
2022-08-25T14:03:12.617Z,30.33
2022-08-25T14:05:44.174Z,30.18
2022-08-25T14:08:32.696Z,30.14
2022-08-25T14:11:14.811Z,30.14
2022-08-25T14:13:44.943Z,30.11
2022-08-25T14:16:19.697Z,29.97
2022-08-25T14:18:51.829Z,30.19
2022-08-25T14:21:23.193Z,30.23
2022-08-25T14:23:51.362Z,30.19
2022-08-25T14:26:20.821Z,30.29
2022-08-25T14:28:49.176Z,30.53
2022-08-25T14:31:24.562Z,30.76
2022-08-25T14:33:57.021Z,30.54
2022-08-25T14:36:25.142Z,30.55
2022-08-25T14:38:55.190Z,30.72
2022-08-25T14:41:25.790Z,30.73
2022-08-25T14:43:54.035Z,30.87
2022-08-25T14:46:24.699Z,30.89
2022-08-25T14:48:56.813Z,30.83
2022-08-25T14:51:26.699Z,30.74
2022-08-25T14:53:58.958Z,30.67
2022-08-25T14:56:29.280Z,30.65
2022-08-25T14:58:57.316Z,30.73
2022-08-25T15:01:30.257Z,30.76
2022-08-25T15:04:04.523Z,30.68
2022-08-25T15:06:34.295Z,30.65
2022-08-25T15:09:13.676Z,30.66
2022-08-25T15:11:48.300Z,30.21
2022-08-25T15:14:29.171Z,29.95
2022-08-25T15:17:02.672Z,29.94
2022-08-25T15:19:31.043Z,29.90
2022-08-25T15:21:59.343Z,30.31
2022-08-25T15:24:29.213Z,30.60
2022-08-25T15:27:00.423Z,30.80
2022-08-25T15:29:31.856Z,30.60
2022-08-25T15:32:00.816Z,30.50
2022-08-25T15:34:28.843Z,30.62
2022-08-25T15:36:58.251Z,30.53
2022-08-25T15:39:26.910Z,30.45
2022-08-25T15:41:54.818Z,30.41
2022-08-25T15:44:29.645Z,30.48
2022-08-25T15:46:57.964Z,30.54
2022-08-25T15:49:26.215Z,30.37
2022-08-25T15:51:58.197Z,29.91
2022-08-25T15:54:27.385Z,29.92
2022-08-25T15:56:56.588Z,29.92
2022-08-25T15:59:26.309Z,30.32
2022-08-25T16:01:55.992Z,30.39
2022-08-25T16:04:25.341Z,30.64
2022-08-25T16:06:53.729Z,30.94
2022-08-25T16:09:23.818Z,30.77
2022-08-25T16:11:55.726Z,30.91
2022-08-25T16:14:27.523Z,30.98
2022-08-25T16:16:58.451Z,31.34
2022-08-25T16:19:28.649Z,31.39
2022-08-25T16:21:56.944Z,31.25
2022-08-25T16:24:25.516Z,31.41
2022-08-25T16:27:00.088Z,31.32
2022-08-25T16:29:40.717Z,31.04
2022-08-25T16:32:09.962Z,31.07
2022-08-25T16:34:37.877Z,30.98
2022-08-25T16:37:08.562Z,30.85
2022-08-25T16:39:37.087Z,30.82
2022-08-25T16:42:08.056Z,30.81
2022-08-25T16:44:35.996Z,30.81
2022-08-25T16:47:05.479Z,30.66
2022-08-25T16:49:38.018Z,30.86
2022-08-25T16:52:28.445Z,31.03
2022-08-25T16:55:14.302Z,30.84
2022-08-25T16:57:46.006Z,30.98
2022-08-25T17:00:18.146Z,30.84
2022-08-25T17:02:49.043Z,30.85
2022-08-25T17:05:18.532Z,30.97
2022-08-25T17:08:07.748Z,30.80
2022-08-25T17:10:37.828Z,30.53
2022-08-25T17:13:06.075Z,30.31
2022-08-25T17:15:34.013Z,30.19
2022-08-25T17:18:03.299Z,30.41
2022-08-25T17:20:32.678Z,30.69
2022-08-25T17:23:00.918Z,30.72
2022-08-25T17:25:28.819Z,30.46
2022-08-25T17:27:57.230Z,30.12
2022-08-25T17:30:25.259Z,29.91
2022-08-25T17:32:53.961Z,29.76
2022-08-25T17:35:23.386Z,29.67
2022-08-25T17:37:51.286Z,29.43
2022-08-25T17:40:21.839Z,29.12
2022-08-25T17:42:52.875Z,29.13
2022-08-25T17:45:20.802Z,29.02
2022-08-25T17:47:49.196Z,28.88
2022-08-25T17:50:17.140Z,28.83
2022-08-25T17:52:46.417Z,28.75
2022-08-25T17:55:14.340Z,28.75
2022-08-25T17:57:43.497Z,28.73
2022-08-25T18:00:13.403Z,28.65
2022-08-25T18:02:43.131Z,28.57
2022-08-25T18:05:12.485Z,28.54
2022-08-25T18:07:41.069Z,28.48
2022-08-25T18:10:13.921Z,28.37
2022-08-25T18:12:42.091Z,28.21
2022-08-25T18:15:12.015Z,28.15
2022-08-25T18:17:42.714Z,28.00
2022-08-25T18:20:14.748Z,27.94
2022-08-25T18:22:44.059Z,27.84
2022-08-25T18:25:15.237Z,27.73
2022-08-25T18:27:44.722Z,27.65
2022-08-25T18:30:13.501Z,27.50
2022-08-25T18:32:41.574Z,27.42
2022-08-25T18:35:10.478Z,27.29
2022-08-25T18:37:58.478Z,27.23
2022-08-25T18:40:29.010Z,27.15
2022-08-25T18:42:58.862Z,27.07
2022-08-25T18:45:29.907Z,26.84
2022-08-25T18:47:57.951Z,26.82
2022-08-25T18:50:30.365Z,26.85
2022-08-25T18:52:59.384Z,26.76
2022-08-25T18:55:28.919Z,26.73
2022-08-25T18:57:58.535Z,26.67
2022-08-25T19:00:29.202Z,26.62
2022-08-25T19:02:59.721Z,26.57
2022-08-25T19:05:31.794Z,26.52
2022-08-25T19:08:02.095Z,26.44
2022-08-25T19:10:33.556Z,26.41
2022-08-25T19:13:08.139Z,26.37
2022-08-25T19:15:37.536Z,26.31
2022-08-25T19:18:09.730Z,26.26
2022-08-25T19:20:38.717Z,26.20
2022-08-25T19:23:08.749Z,26.13
2022-08-25T19:25:41.638Z,26.03
2022-08-25T19:28:12.867Z,26.01
2022-08-25T19:30:50.062Z,25.94
2022-08-25T19:33:42.522Z,25.85
2022-08-25T19:36:09.706Z,25.75
2022-08-25T19:38:39.322Z,25.65
2022-08-25T19:41:13.895Z,25.74
2022-08-25T19:43:55.987Z,25.71
2022-08-25T19:46:32.249Z,25.55
2022-08-25T19:49:06.843Z,25.60
2022-08-25T19:51:36.343Z,25.56
2022-08-25T19:54:04.375Z,25.45
2022-08-25T19:56:35.139Z,25.45
2022-08-25T19:59:05.139Z,25.45
2022-08-25T20:01:33.156Z,25.42
2022-08-25T20:04:03.532Z,25.37
2022-08-25T20:06:32.169Z,25.35
2022-08-25T20:09:00.776Z,25.31
2022-08-25T20:11:30.284Z,25.25
2022-08-25T20:14:03.678Z,25.21
2022-08-25T20:16:32.332Z,25.21
2022-08-25T20:19:01.001Z,25.19
2022-08-25T20:21:30.853Z,25.15
2022-08-25T20:24:16.192Z,25.10
2022-08-25T20:26:44.477Z,25.07
2022-08-25T20:29:14.070Z,24.99
2022-08-25T20:31:41.856Z,24.98
2022-08-25T20:34:11.588Z,24.97
2022-08-25T20:36:49.751Z,24.90
2022-08-25T20:39:20.162Z,24.90
2022-08-25T20:41:48.613Z,24.84
2022-08-25T20:44:18.841Z,24.87
2022-08-25T20:46:51.530Z,24.81
2022-08-25T20:49:20.208Z,24.80
2022-08-25T20:51:48.125Z,24.74
2022-08-25T20:54:19.470Z,24.70
2022-08-25T20:56:47.419Z,24.67
2022-08-25T20:59:16.787Z,24.67
2022-08-25T21:01:44.783Z,24.63
2022-08-25T21:04:15.019Z,24.62
2022-08-25T21:06:43.618Z,24.67
2022-08-25T21:09:15.899Z,24.65
2022-08-25T21:11:45.025Z,24.64
2022-08-25T21:14:14.592Z,24.63
2022-08-25T21:16:46.478Z,24.54
2022-08-25T21:19:16.362Z,24.49
2022-08-25T21:21:44.518Z,24.48
2022-08-25T21:24:13.665Z,24.51
2022-08-25T21:26:48.402Z,24.49
2022-08-25T21:29:18.287Z,24.41
2022-08-25T21:31:47.633Z,24.41
2022-08-25T21:34:17.393Z,24.42
2022-08-25T21:36:47.494Z,24.41
2022-08-25T21:39:16.347Z,24.36
2022-08-25T21:41:45.548Z,24.31
2022-08-25T21:44:14.443Z,24.27
2022-08-25T21:46:53.879Z,24.28
2022-08-25T21:49:24.982Z,24.31
2022-08-25T21:52:00.456Z,24.24
2022-08-25T21:54:29.843Z,24.29
2022-08-25T21:56:59.954Z,24.30
2022-08-25T21:59:30.020Z,24.28
2022-08-25T22:01:59.603Z,24.27
2022-08-25T22:04:29.634Z,24.27
2022-08-25T22:06:58.292Z,24.23
2022-08-25T22:09:28.299Z,24.23
2022-08-25T22:11:56.547Z,24.24
2022-08-25T22:14:25.999Z,24.22
2022-08-25T22:16:54.851Z,24.22
2022-08-25T22:19:23.588Z,24.21
2022-08-25T22:21:57.026Z,24.18
2022-08-25T22:24:28.182Z,24.18
2022-08-25T22:26:57.307Z,24.18
2022-08-25T22:29:26.399Z,24.14
2022-08-25T22:32:00.839Z,24.08
2022-08-25T22:34:32.438Z,24.05
2022-08-25T22:37:02.366Z,24.04
2022-08-25T22:39:32.410Z,23.98
2022-08-25T22:42:02.739Z,23.95
2022-08-25T22:44:31.504Z,23.92
2022-08-25T22:46:59.470Z,23.91
2022-08-25T22:49:29.716Z,23.86
2022-08-25T22:51:58.062Z,23.83
2022-08-25T22:54:27.279Z,23.80
2022-08-25T22:56:55.136Z,23.77
2022-08-25T22:59:23.116Z,23.75
2022-08-25T23:01:52.406Z,23.65
2022-08-25T23:04:20.886Z,23.72
2022-08-25T23:06:48.920Z,23.69
2022-08-25T23:09:17.528Z,23.70
2022-08-25T23:11:46.804Z,23.70
2022-08-25T23:14:14.612Z,23.70
2022-08-25T23:16:44.444Z,23.63
2022-08-25T23:19:13.541Z,23.66
2022-08-25T23:21:59.816Z,23.64
2022-08-25T23:24:29.690Z,23.67
2022-08-25T23:27:01.651Z,23.65
2022-08-25T23:29:30.889Z,23.63
2022-08-25T23:31:59.342Z,23.65
2022-08-25T23:34:28.700Z,23.66
2022-08-25T23:36:57.350Z,23.66
2022-08-25T23:39:25.398Z,23.55
2022-08-25T23:41:53.809Z,23.60
2022-08-25T23:44:25.696Z,23.58
2022-08-25T23:46:54.069Z,23.54
2022-08-25T23:49:23.707Z,23.53
2022-08-25T23:51:55.052Z,23.49
2022-08-25T23:54:22.990Z,23.49
2022-08-25T23:57:00.768Z,23.48
2022-08-25T23:59:30.840Z,23.48
